createdAt,value
2016-11-04T00:00:59.728Z,1017.01
2016-11-04T00:01:59.739Z,1017
2016-11-04T00:02:59.834Z,1017
2016-11-04T00:03:59.773Z,1017
2016-11-04T00:04:59.798Z,1016.96
2016-11-04T00:05:59.810Z,1017
2016-11-04T00:06:59.828Z,1016.97
2016-11-04T00:07:59.850Z,1016.96
2016-11-04T00:08:59.865Z,1016.96
2016-11-04T00:09:59.876Z,1016.93
2016-11-04T00:10:59.904Z,1016.91
2016-11-04T00:11:59.909Z,1016.94
2016-11-04T00:12:59.929Z,1016.94
2016-11-04T00:13:59.948Z,1016.92
2016-11-04T00:14:59.964Z,1016.94
2016-11-04T00:16:00.036Z,1016.89
2016-11-04T00:16:59.997Z,1016.89
2016-11-04T00:18:00.025Z,1016.88
2016-11-04T00:19:00.031Z,1016.89
2016-11-04T00:20:00.105Z,1016.84
2016-11-04T00:21:00.062Z,1016.84
2016-11-04T00:22:00.085Z,1016.84
2016-11-04T00:23:00.103Z,1016.83
2016-11-04T00:24:00.120Z,1016.8
2016-11-04T00:25:00.134Z,1016.77
2016-11-04T00:26:00.153Z,1016.71
2016-11-04T00:27:00.172Z,1016.75
2016-11-04T00:28:00.179Z,1016.73
2016-11-04T00:29:00.212Z,1016.74
2016-11-04T00:30:00.212Z,1016.77
2016-11-04T00:31:00.239Z,1016.72
2016-11-04T00:32:00.252Z,1016.73
2016-11-04T00:33:00.289Z,1016.71
2016-11-04T00:34:00.286Z,1016.69
2016-11-04T00:35:00.301Z,1016.7
2016-11-04T00:36:00.317Z,1016.69
2016-11-04T00:37:00.334Z,1016.71
2016-11-04T00:38:00.355Z,1016.69
2016-11-04T00:39:00.371Z,1016.65
2016-11-04T00:40:00.382Z,1016.64
2016-11-04T00:41:00.404Z,1016.61
2016-11-04T00:42:00.428Z,1016.58
2016-11-04T00:43:00.441Z,1016.56
2016-11-04T00:44:00.452Z,1016.57
2016-11-04T00:45:00.474Z,1016.56
2016-11-04T00:46:00.485Z,1016.5
2016-11-04T00:47:00.515Z,1016.52
2016-11-04T00:48:00.568Z,1016.46
2016-11-04T00:49:00.542Z,1016.44
2016-11-04T00:50:00.549Z,1016.48
2016-11-04T00:51:00.571Z,1016.43
2016-11-04T00:52:00.592Z,1016.46
2016-11-04T00:53:00.605Z,1016.46
2016-11-04T00:54:00.616Z,1016.47
2016-11-04T00:55:00.641Z,1016.47
2016-11-04T00:56:00.662Z,1016.46
2016-11-04T00:57:00.672Z,1016.43
2016-11-04T00:58:00.697Z,1016.45
2016-11-04T00:59:00.702Z,1016.43
2016-11-04T01:00:00.724Z,1016.44
2016-11-04T01:01:00.739Z,1016.39
2016-11-04T01:02:00.755Z,1016.4
2016-11-04T01:03:00.832Z,1016.41
2016-11-04T01:04:00.796Z,1016.38
2016-11-04T01:05:00.823Z,1016.36
2016-11-04T01:06:00.818Z,1016.36
2016-11-04T01:07:00.855Z,1016.37
2016-11-04T01:08:00.853Z,1016.35
2016-11-04T01:09:00.874Z,1016.31
2016-11-04T01:10:00.884Z,1016.29
2016-11-04T01:11:00.911Z,1016.29
2016-11-04T01:12:00.935Z,1016.29
2016-11-04T01:13:00.944Z,1016.25
2016-11-04T01:14:00.950Z,1016.27
2016-11-04T01:15:00.966Z,1016.27
2016-11-04T01:16:00.996Z,1016.23
2016-11-04T01:17:01.001Z,1016.19
2016-11-04T01:18:01.023Z,1016.19
2016-11-04T01:19:01.042Z,1016.17
2016-11-04T01:20:01.063Z,1016.1
2016-11-04T01:21:01.067Z,1016.1
2016-11-04T01:22:01.090Z,1016.11
2016-11-04T01:23:01.100Z,1016.08
2016-11-04T01:24:01.121Z,1016.09
2016-11-04T01:25:01.136Z,1016.09
2016-11-04T01:26:01.156Z,1016.1
2016-11-04T01:27:01.175Z,1016.06
2016-11-04T01:28:01.193Z,1016.04
2016-11-04T01:29:01.207Z,1016.06
2016-11-04T01:30:01.226Z,1016.07
2016-11-04T01:31:01.243Z,1016.05
2016-11-04T01:32:01.263Z,1016.07
2016-11-04T01:33:01.267Z,1016.06
2016-11-04T01:34:01.293Z,1016.07
2016-11-04T01:35:01.303Z,1016.08
2016-11-04T01:36:01.317Z,1016.1
2016-11-04T01:37:01.333Z,1016.07
2016-11-04T01:38:01.367Z,1016.09
2016-11-04T01:39:01.373Z,1016.06
2016-11-04T01:40:01.390Z,1016.05
2016-11-04T01:41:01.406Z,1016.05
2016-11-04T01:42:01.425Z,1016.09
2016-11-04T01:43:01.441Z,1016.08
2016-11-04T01:44:01.449Z,1016.08
2016-11-04T01:45:01.469Z,1016.04
2016-11-04T01:46:01.489Z,1016.06
2016-11-04T01:47:01.505Z,1016.06
2016-11-04T01:48:01.521Z,1016.05
2016-11-04T01:49:01.532Z,1015.99
2016-11-04T01:50:01.552Z,1016.02
2016-11-04T01:51:01.570Z,1016
2016-11-04T01:52:01.583Z,1015.98
2016-11-04T01:53:01.607Z,1015.93
2016-11-04T01:54:01.618Z,1016
2016-11-04T01:55:01.640Z,1015.98
2016-11-04T01:56:01.650Z,1015.98
2016-11-04T01:57:01.675Z,1015.96
2016-11-04T01:58:01.690Z,1015.97
2016-11-04T01:59:01.700Z,1015.96
2016-11-04T02:00:01.717Z,1015.95
2016-11-04T02:01:01.735Z,1015.95
2016-11-04T02:02:01.751Z,1015.93
2016-11-04T02:03:01.773Z,1015.93
2016-11-04T02:04:01.789Z,1015.92
2016-11-04T02:05:01.801Z,1015.92
2016-11-04T02:06:01.819Z,1015.92
2016-11-04T02:07:01.829Z,1015.87
2016-11-04T02:08:01.850Z,1015.89
2016-11-04T02:09:01.868Z,1015.85
2016-11-04T02:10:01.892Z,1015.88
2016-11-04T02:11:01.904Z,1015.86
2016-11-04T02:12:01.914Z,1015.9
2016-11-04T02:13:01.932Z,1015.88
2016-11-04T02:14:01.948Z,1015.89
2016-11-04T02:15:01.975Z,1015.89
2016-11-04T02:16:01.985Z,1015.87
2016-11-04T02:17:02.001Z,1015.88
2016-11-04T02:18:02.017Z,1015.87
2016-11-04T02:19:02.031Z,1015.81
2016-11-04T02:20:02.047Z,1015.87
2016-11-04T02:21:02.081Z,1015.9
2016-11-04T02:22:02.079Z,1015.83
2016-11-04T02:23:02.097Z,1015.85
2016-11-04T02:24:02.122Z,1015.84
2016-11-04T02:25:02.129Z,1015.77
2016-11-04T02:26:02.147Z,1015.79
2016-11-04T02:27:02.163Z,1015.76
2016-11-04T02:28:02.179Z,1015.71
2016-11-04T02:29:02.200Z,1015.76
2016-11-04T02:30:02.210Z,1015.73
2016-11-04T02:31:02.226Z,1015.67
2016-11-04T02:32:02.252Z,1015.64
2016-11-04T02:33:02.261Z,1015.62
2016-11-04T02:34:02.331Z,1015.66
2016-11-04T02:35:02.294Z,1015.62
2016-11-04T02:36:02.358Z,1015.64
2016-11-04T02:37:02.336Z,1015.6
2016-11-04T02:38:02.340Z,1015.57
2016-11-04T02:39:02.361Z,1015.56
2016-11-04T02:40:02.377Z,1015.58
2016-11-04T02:41:02.390Z,1015.63
2016-11-04T02:42:02.404Z,1015.64
2016-11-04T02:43:02.428Z,1015.61
2016-11-04T02:44:02.436Z,1015.6
2016-11-04T02:45:02.459Z,1015.59
2016-11-04T02:46:02.479Z,1015.6
2016-11-04T02:47:02.574Z,1015.6
2016-11-04T02:48:02.500Z,1015.58
2016-11-04T02:49:02.537Z,1015.56
2016-11-04T02:50:02.532Z,1015.47
2016-11-04T02:51:02.548Z,1015.5
2016-11-04T02:52:02.567Z,1015.51
2016-11-04T02:53:02.580Z,1015.54
2016-11-04T02:54:02.599Z,1015.53
2016-11-04T02:55:02.620Z,1015.51
2016-11-04T02:56:02.630Z,1015.51
2016-11-04T02:57:02.649Z,1015.47
2016-11-04T02:58:02.663Z,1015.49
2016-11-04T02:59:02.679Z,1015.45
2016-11-04T03:00:02.697Z,1015.45
2016-11-04T03:01:02.723Z,1015.46
2016-11-04T03:02:02.730Z,1015.44
2016-11-04T03:03:02.746Z,1015.45
2016-11-04T03:04:02.773Z,1015.44
2016-11-04T03:05:02.780Z,1015.46
2016-11-04T03:06:02.794Z,1015.44
2016-11-04T03:07:02.817Z,1015.42
2016-11-04T03:08:02.825Z,1015.42
2016-11-04T03:09:02.850Z,1015.44
2016-11-04T03:10:02.855Z,1015.42
2016-11-04T03:11:02.878Z,1015.39
2016-11-04T03:12:02.890Z,1015.37
2016-11-04T03:13:02.937Z,1015.39
2016-11-04T03:14:02.924Z,1015.36
2016-11-04T03:15:02.936Z,1015.38
2016-11-04T03:16:02.959Z,1015.4
2016-11-04T03:17:02.972Z,1015.36
2016-11-04T03:18:02.991Z,1015.39
2016-11-04T03:19:03.006Z,1015.38
2016-11-04T03:20:03.023Z,1015.32
2016-11-04T03:21:03.037Z,1015.32
2016-11-04T03:22:03.050Z,1015.35
2016-11-04T03:23:03.071Z,1015.35
2016-11-04T03:24:03.084Z,1015.35
2016-11-04T03:25:03.109Z,1015.36
2016-11-04T03:26:03.119Z,1015.37
2016-11-04T03:27:03.130Z,1015.3
2016-11-04T03:28:03.149Z,1015.32
2016-11-04T03:29:03.170Z,1015.31
2016-11-04T03:30:03.178Z,1015.34
2016-11-04T03:31:03.199Z,1015.31
2016-11-04T03:32:03.219Z,1015.3
2016-11-04T03:33:03.231Z,1015.28
2016-11-04T03:34:03.250Z,1015.25
2016-11-04T03:35:03.259Z,1015.25
2016-11-04T03:36:03.281Z,1015.19
2016-11-04T03:37:03.287Z,1015.21
2016-11-04T03:38:03.318Z,1015.16
2016-11-04T03:39:03.321Z,1015.14
2016-11-04T03:40:03.341Z,1015.16
2016-11-04T03:41:03.356Z,1015.13
2016-11-04T03:42:03.375Z,1015.13
2016-11-04T03:43:03.386Z,1015.11
2016-11-04T03:44:03.403Z,1015.06
2016-11-04T03:45:03.423Z,1015.06
2016-11-04T03:46:03.437Z,1015.05
2016-11-04T03:47:03.453Z,1015.03
2016-11-04T03:48:03.467Z,1015.01
2016-11-04T03:49:03.490Z,1014.99
2016-11-04T03:50:03.503Z,1014.97
2016-11-04T03:51:03.519Z,1014.93
2016-11-04T03:52:03.536Z,1014.96
2016-11-04T03:53:03.546Z,1014.91
2016-11-04T03:54:03.565Z,1014.92
2016-11-04T03:55:03.576Z,1014.94
2016-11-04T03:56:03.599Z,1014.96
2016-11-04T03:57:03.610Z,1014.93
2016-11-04T03:58:03.628Z,1014.96
2016-11-04T03:59:03.650Z,1014.95
2016-11-04T04:00:03.665Z,1014.93
2016-11-04T04:01:03.685Z,1014.92
2016-11-04T04:02:03.698Z,1014.91
2016-11-04T04:03:03.714Z,1014.91
2016-11-04T04:04:03.726Z,1014.87
2016-11-04T04:05:03.750Z,1014.9
2016-11-04T04:06:03.757Z,1014.84
2016-11-04T04:07:03.785Z,1014.85
2016-11-04T04:08:03.790Z,1014.85
2016-11-04T04:09:03.813Z,1014.82
2016-11-04T04:10:03.824Z,1014.78
2016-11-04T04:11:03.848Z,1014.71
2016-11-04T04:12:03.856Z,1014.75
2016-11-04T04:13:03.877Z,1014.74
2016-11-04T04:14:03.897Z,1014.75
2016-11-04T04:15:03.909Z,1014.69
2016-11-04T04:16:03.925Z,1014.7
2016-11-04T04:17:03.937Z,1014.74
2016-11-04T04:18:03.956Z,1014.69
2016-11-04T04:19:03.975Z,1014.64
2016-11-04T04:20:03.989Z,1014.61
2016-11-04T04:21:04.007Z,1014.6
2016-11-04T04:22:04.031Z,1014.6
2016-11-04T04:23:04.043Z,1014.58
2016-11-04T04:24:04.137Z,1014.48
2016-11-04T04:25:04.073Z,1014.5
2016-11-04T04:26:04.146Z,1014.5
2016-11-04T04:27:04.108Z,1014.47
2016-11-04T04:28:04.119Z,1014.44
2016-11-04T04:29:04.136Z,1014.44
2016-11-04T04:30:04.159Z,1014.42
2016-11-04T04:31:04.172Z,1014.44
2016-11-04T04:32:04.186Z,1014.35
2016-11-04T04:33:04.209Z,1014.37
2016-11-04T04:34:04.227Z,1014.37
2016-11-04T04:35:04.234Z,1014.34
2016-11-04T04:36:04.255Z,1014.31
2016-11-04T04:37:04.277Z,1014.32
2016-11-04T04:38:04.285Z,1014.33
2016-11-04T04:39:04.308Z,1014.32
2016-11-04T04:40:04.324Z,1014.3
2016-11-04T04:41:04.337Z,1014.28
2016-11-04T04:42:04.353Z,1014.27
2016-11-04T04:43:04.376Z,1014.25
2016-11-04T04:44:04.385Z,1014.26
2016-11-04T04:45:04.404Z,1014.23
2016-11-04T04:46:04.418Z,1014.2
2016-11-04T04:47:04.444Z,1014.21
2016-11-04T04:48:04.460Z,1014.2
2016-11-04T04:49:04.479Z,1014.17
2016-11-04T04:50:04.489Z,1014.19
2016-11-04T04:51:04.503Z,1014.17
2016-11-04T04:52:04.630Z,1014.16
2016-11-04T04:53:04.536Z,1014.17
2016-11-04T04:54:04.557Z,1014.14
2016-11-04T04:55:04.582Z,1014.13
2016-11-04T04:56:04.592Z,1014.11
2016-11-04T04:57:04.606Z,1014.11
2016-11-04T04:58:04.619Z,1014.05
2016-11-04T04:59:04.646Z,1014.07
2016-11-04T05:00:04.659Z,1014.03
2016-11-04T05:01:04.673Z,1014.01
2016-11-04T05:02:04.691Z,1013.98
2016-11-04T05:03:04.733Z,1013.98
2016-11-04T05:04:04.721Z,1014
2016-11-04T05:05:04.744Z,1013.95
2016-11-04T05:06:04.760Z,1013.93
2016-11-04T05:07:04.772Z,1013.89
2016-11-04T05:08:04.800Z,1013.9
2016-11-04T05:09:04.808Z,1013.93
2016-11-04T05:10:04.831Z,1013.93
2016-11-04T05:11:04.838Z,1013.93
2016-11-04T05:12:04.861Z,1013.93
2016-11-04T05:13:04.878Z,1013.91
2016-11-04T05:14:04.889Z,1013.89
2016-11-04T05:15:04.955Z,1013.9
2016-11-04T05:16:04.927Z,1013.85
2016-11-04T05:17:04.940Z,1013.83
2016-11-04T05:18:04.961Z,1013.89
2016-11-04T05:19:04.978Z,1013.82
2016-11-04T05:20:04.993Z,1013.89
2016-11-04T05:21:05.004Z,1013.84
2016-11-04T05:22:05.031Z,1013.85
2016-11-04T05:23:05.044Z,1013.84
2016-11-04T05:24:05.064Z,1013.81
2016-11-04T05:25:05.078Z,1013.79
2016-11-04T05:26:05.097Z,1013.81
2016-11-04T05:27:05.113Z,1013.77
2016-11-04T05:28:05.124Z,1013.76
2016-11-04T05:29:05.150Z,1013.76
2016-11-04T05:30:05.170Z,1013.72
2016-11-04T05:31:05.180Z,1013.74
2016-11-04T05:32:05.188Z,1013.71
2016-11-04T05:33:05.206Z,1013.76
2016-11-04T05:34:05.225Z,1013.71
2016-11-04T05:35:05.249Z,1013.69
2016-11-04T05:36:05.262Z,1013.73
2016-11-04T05:37:05.278Z,1013.73
2016-11-04T05:38:05.301Z,1013.73
2016-11-04T05:39:05.309Z,1013.67
2016-11-04T05:40:05.331Z,1013.73
2016-11-04T05:41:05.345Z,1013.7
2016-11-04T05:42:05.363Z,1013.7
2016-11-04T05:43:05.381Z,1013.72
2016-11-04T05:44:05.398Z,1013.69
2016-11-04T05:45:05.416Z,1013.69
2016-11-04T05:46:05.430Z,1013.67
2016-11-04T05:47:05.459Z,1013.66
2016-11-04T05:48:05.464Z,1013.71
2016-11-04T05:49:05.480Z,1013.69
2016-11-04T05:50:05.495Z,1013.68
2016-11-04T05:51:05.517Z,1013.65
2016-11-04T05:52:05.530Z,1013.69
2016-11-04T05:53:05.549Z,1013.66
2016-11-04T05:54:05.562Z,1013.65
2016-11-04T05:55:05.582Z,1013.61
2016-11-04T05:56:05.599Z,1013.62
2016-11-04T05:57:05.618Z,1013.65
2016-11-04T05:58:05.629Z,1013.62
2016-11-04T05:59:05.645Z,1013.62
2016-11-04T06:00:05.671Z,1013.64
2016-11-04T06:01:05.682Z,1013.64
2016-11-04T06:02:05.700Z,1013.64
2016-11-04T06:03:05.717Z,1013.61
2016-11-04T06:04:05.743Z,1013.66
2016-11-04T06:05:05.751Z,1013.64
2016-11-04T06:06:05.770Z,1013.63
2016-11-04T06:07:05.782Z,1013.62
2016-11-04T06:08:05.799Z,1013.63
2016-11-04T06:09:05.813Z,1013.65
2016-11-04T06:10:05.829Z,1013.66
2016-11-04T06:11:05.852Z,1013.66
2016-11-04T06:12:05.946Z,1013.66
2016-11-04T06:13:05.880Z,1013.69
2016-11-04T06:14:05.952Z,1013.65
2016-11-04T06:15:05.922Z,1013.71
2016-11-04T06:16:05.930Z,1013.71
2016-11-04T06:17:05.959Z,1013.72
2016-11-04T06:18:05.978Z,1013.7
2016-11-04T06:19:05.981Z,1013.69
2016-11-04T06:20:06.002Z,1013.7
2016-11-04T06:21:06.019Z,1013.7
2016-11-04T06:22:06.029Z,1013.63
2016-11-04T06:23:06.045Z,1013.65
2016-11-04T06:24:06.064Z,1013.62
2016-11-04T06:25:06.105Z,1013.63
2016-11-04T06:26:06.100Z,1013.67
2016-11-04T06:27:06.216Z,1013.67
2016-11-04T06:28:06.130Z,1013.65
2016-11-04T06:29:06.244Z,1013.67
2016-11-04T06:30:06.172Z,1013.64
2016-11-04T06:31:06.180Z,1013.65
2016-11-04T06:32:06.188Z,1013.62
2016-11-04T06:33:06.209Z,1013.63
2016-11-04T06:34:06.229Z,1013.63
2016-11-04T06:35:06.245Z,1013.66
2016-11-04T06:36:06.268Z,1013.59
2016-11-04T06:37:06.284Z,1013.6
2016-11-04T06:38:06.292Z,1013.6
2016-11-04T06:39:06.312Z,1013.61
2016-11-04T06:40:06.349Z,1013.63
2016-11-04T06:41:06.351Z,1013.62
2016-11-04T06:42:06.364Z,1013.65
2016-11-04T06:43:06.376Z,1013.57
2016-11-04T06:44:06.389Z,1013.63
2016-11-04T06:45:06.410Z,1013.61
2016-11-04T06:46:06.431Z,1013.6
2016-11-04T06:47:06.446Z,1013.59
2016-11-04T06:48:06.459Z,1013.61
2016-11-04T06:49:06.480Z,1013.59
2016-11-04T06:50:06.497Z,1013.61
2016-11-04T06:51:06.514Z,1013.6
2016-11-04T06:52:06.529Z,1013.62
2016-11-04T06:53:06.556Z,1013.64
2016-11-04T06:54:06.559Z,1013.66
2016-11-04T06:55:06.624Z,1013.7
2016-11-04T06:56:06.663Z,1013.73
2016-11-04T06:57:06.609Z,1013.71
2016-11-04T06:58:06.628Z,1013.72
2016-11-04T06:59:06.641Z,1013.75
2016-11-04T07:00:06.663Z,1013.72
2016-11-04T07:01:06.689Z,1013.74
2016-11-04T07:02:06.692Z,1013.74
2016-11-04T07:03:06.720Z,1013.7
2016-11-04T07:04:06.732Z,1013.77
2016-11-04T07:05:06.750Z,1013.71
2016-11-04T07:06:06.762Z,1013.79
2016-11-04T07:07:06.780Z,1013.7
2016-11-04T07:08:06.902Z,1013.75
2016-11-04T07:09:06.816Z,1013.75
2016-11-04T07:10:06.892Z,1013.73
2016-11-04T07:11:06.851Z,1013.71
2016-11-04T07:12:06.862Z,1013.69
2016-11-04T07:13:06.895Z,1013.68
2016-11-04T07:14:06.901Z,1013.66
2016-11-04T07:15:06.918Z,1013.65
2016-11-04T07:16:06.934Z,1013.6
2016-11-04T07:17:06.948Z,1013.63
2016-11-04T07:18:06.967Z,1013.61
2016-11-04T07:19:06.980Z,1013.6
2016-11-04T07:20:06.999Z,1013.55
2016-11-04T07:21:07.017Z,1013.63
2016-11-04T07:22:07.031Z,1013.67
2016-11-04T07:23:07.049Z,1013.61
2016-11-04T07:24:07.070Z,1013.59
2016-11-04T07:25:07.079Z,1013.57
2016-11-04T07:26:07.100Z,1013.5
2016-11-04T07:27:07.121Z,1013.54
2016-11-04T07:28:07.135Z,1013.58
2016-11-04T07:29:07.155Z,1013.52
2016-11-04T07:30:07.169Z,1013.54
2016-11-04T07:31:07.188Z,1013.57
2016-11-04T07:32:07.202Z,1013.52
2016-11-04T07:33:07.218Z,1013.53
2016-11-04T07:34:07.239Z,1013.56
2016-11-04T07:35:07.255Z,1013.52
2016-11-04T07:36:07.274Z,1013.47
2016-11-04T07:37:07.290Z,1013.49
2016-11-04T07:38:07.306Z,1013.48
2016-11-04T07:39:07.318Z,1013.46
2016-11-04T07:40:07.341Z,1013.47
2016-11-04T07:41:07.357Z,1013.48
2016-11-04T07:42:07.376Z,1013.52
2016-11-04T07:43:07.387Z,1013.49
2016-11-04T07:44:07.407Z,1013.41
2016-11-04T07:45:07.422Z,1013.44
2016-11-04T07:46:07.449Z,1013.43
2016-11-04T07:47:07.455Z,1013.41
2016-11-04T07:48:07.485Z,1013.45
2016-11-04T07:49:07.490Z,1013.45
2016-11-04T07:50:07.512Z,1013.41
2016-11-04T07:51:07.530Z,1013.42
2016-11-04T07:52:07.542Z,1013.43
2016-11-04T07:53:07.560Z,1013.43
2016-11-04T07:54:07.581Z,1013.46
2016-11-04T07:55:07.593Z,1013.4
2016-11-04T07:56:07.613Z,1013.44
2016-11-04T07:57:07.634Z,1013.4
2016-11-04T07:58:07.646Z,1013.37
2016-11-04T07:59:07.666Z,1013.43
2016-11-04T08:00:07.686Z,1013.41
2016-11-04T08:01:07.702Z,1013.4
2016-11-04T08:02:07.725Z,1013.42
2016-11-04T08:03:07.734Z,1013.35
2016-11-04T08:04:07.764Z,1013.36
2016-11-04T08:05:07.770Z,1013.38
2016-11-04T08:06:07.784Z,1013.32
2016-11-04T08:07:07.806Z,1013.32
2016-11-04T08:08:07.822Z,1013.36
2016-11-04T08:09:07.840Z,1013.33
2016-11-04T08:10:07.859Z,1013.32
2016-11-04T08:11:07.870Z,1013.32
2016-11-04T08:12:07.895Z,1013.28
2016-11-04T08:13:07.909Z,1013.27
2016-11-04T08:14:07.930Z,1013.27
2016-11-04T08:15:07.941Z,1013.25
2016-11-04T08:16:07.957Z,1013.26
2016-11-04T08:17:07.974Z,1013.29
2016-11-04T08:18:07.997Z,1013.26
2016-11-04T08:19:08.016Z,1013.27
2016-11-04T08:20:08.024Z,1013.31
2016-11-04T08:21:08.045Z,1013.22
2016-11-04T08:22:08.056Z,1013.24
2016-11-04T08:23:08.085Z,1013.26
2016-11-04T08:24:08.341Z,1013.23
2016-11-04T08:25:08.114Z,1013.17
2016-11-04T08:26:08.132Z,1013.16
2016-11-04T08:27:08.152Z,1013.17
2016-11-04T08:28:08.169Z,1013.13
2016-11-04T08:29:08.188Z,1013.12
2016-11-04T08:30:08.203Z,1013.12
2016-11-04T08:31:08.224Z,1013.13
2016-11-04T08:32:08.245Z,1013.17
2016-11-04T08:33:08.256Z,1013.08
2016-11-04T08:34:08.276Z,1013.15
2016-11-04T08:35:08.290Z,1013.15
2016-11-04T08:36:08.310Z,1013.17
2016-11-04T08:37:08.326Z,1013.19
2016-11-04T08:38:08.345Z,1013.17
2016-11-04T08:39:08.361Z,1013.15
2016-11-04T08:40:08.375Z,1013.16
2016-11-04T08:41:08.495Z,1013.1
2016-11-04T08:42:08.411Z,1013.1
2016-11-04T08:43:08.526Z,1013.07
2016-11-04T08:44:08.447Z,1013.06
2016-11-04T08:45:08.464Z,1013.08
2016-11-04T08:46:08.487Z,1013.09
2016-11-04T08:47:08.506Z,1013.09
2016-11-04T08:48:08.528Z,1013.06
2016-11-04T08:49:08.546Z,1013.05
2016-11-04T08:50:08.552Z,1012.99
2016-11-04T08:51:08.573Z,1013
2016-11-04T08:52:08.589Z,1012.99
2016-11-04T08:53:08.604Z,1013
2016-11-04T08:54:08.632Z,1013.05
2016-11-04T08:55:08.647Z,1013.04
2016-11-04T08:56:08.695Z,1013.03
2016-11-04T08:57:08.691Z,1013.08
2016-11-04T08:58:08.756Z,1012.96
2016-11-04T08:59:08.716Z,1013.11
2016-11-04T09:00:08.733Z,1013.04
2016-11-04T09:01:08.748Z,1013.05
2016-11-04T09:02:08.764Z,1013.02
2016-11-04T09:03:08.785Z,1013.05
2016-11-04T09:04:08.805Z,1013.08
2016-11-04T09:05:08.816Z,1013.08
2016-11-04T09:06:08.838Z,1013.09
2016-11-04T09:07:08.860Z,1013.05
2016-11-04T09:08:08.871Z,1013.05
2016-11-04T09:09:08.934Z,1013.1
2016-11-04T09:10:08.910Z,1013.05
2016-11-04T09:11:08.927Z,1013.01
2016-11-04T09:12:08.946Z,1013.05
2016-11-04T09:13:08.960Z,1013.02
2016-11-04T09:14:08.981Z,1013.03
2016-11-04T09:15:08.992Z,1013.05
2016-11-04T09:16:09.019Z,1013.1
2016-11-04T09:17:09.027Z,1013.06
2016-11-04T09:18:09.046Z,1013.07
2016-11-04T09:19:09.065Z,1013.07
2016-11-04T09:20:09.084Z,1013.13
2016-11-04T09:21:09.094Z,1013.14
2016-11-04T09:22:09.115Z,1013.16
2016-11-04T09:23:09.132Z,1013.14
2016-11-04T09:24:09.152Z,1013.13
2016-11-04T09:25:09.176Z,1013.13
2016-11-04T09:26:09.187Z,1013.15
2016-11-04T09:27:09.206Z,1013.1
2016-11-04T09:28:09.225Z,1013.08
2016-11-04T09:29:09.250Z,1013.1
2016-11-04T09:30:09.263Z,1013.1
2016-11-04T09:31:09.299Z,1013.13
2016-11-04T09:32:09.307Z,1013.12
2016-11-04T09:33:09.318Z,1013.1
2016-11-04T09:34:09.339Z,1013
2016-11-04T09:35:09.356Z,1013.08
2016-11-04T09:36:09.372Z,1013.05
2016-11-04T09:37:09.385Z,1013.07
2016-11-04T09:38:09.410Z,1013.07
2016-11-04T09:39:09.429Z,1013.06
2016-11-04T09:40:09.448Z,1013.11
2016-11-04T09:41:09.470Z,1013.1
2016-11-04T09:42:09.490Z,1013.08
2016-11-04T09:43:09.503Z,1013.1
2016-11-04T09:44:09.523Z,1013.1
2016-11-04T09:45:09.534Z,1013.09
2016-11-04T09:46:09.557Z,1013.09
2016-11-04T09:47:09.577Z,1013.09
2016-11-04T09:48:09.598Z,1013.09
2016-11-04T09:49:09.620Z,1013.04
2016-11-04T09:50:09.635Z,1013.07
2016-11-04T09:51:09.657Z,1013.07
2016-11-04T09:52:09.668Z,1013.05
2016-11-04T09:53:09.688Z,1013.04
2016-11-04T09:54:09.711Z,1013.02
2016-11-04T09:55:09.731Z,1013.02
2016-11-04T09:56:09.750Z,1013.05
2016-11-04T09:57:09.764Z,1013.02
2016-11-04T09:58:09.784Z,1013.02
2016-11-04T09:59:09.804Z,1013.03
2016-11-04T10:00:09.829Z,1013
2016-11-04T10:01:09.840Z,1013
2016-11-04T10:02:09.858Z,1013.02
2016-11-04T10:03:09.882Z,1012.98
2016-11-04T10:04:09.893Z,1013.01
2016-11-04T10:05:09.920Z,1013.02
2016-11-04T10:06:09.936Z,1013.05
2016-11-04T10:07:09.956Z,1013.06
2016-11-04T10:08:09.979Z,1013.03
2016-11-04T10:09:09.989Z,1012.98
2016-11-04T10:10:10.013Z,1012.97
2016-11-04T10:11:10.034Z,1012.93
2016-11-04T10:12:10.052Z,1012.96
2016-11-04T10:13:10.069Z,1012.95
2016-11-04T10:14:10.184Z,1012.99
2016-11-04T10:15:10.101Z,1012.97
2016-11-04T10:16:10.126Z,1012.98
2016-11-04T10:17:10.157Z,1012.94
2016-11-04T10:18:10.160Z,1012.93
2016-11-04T10:19:10.178Z,1012.92
2016-11-04T10:20:10.195Z,1012.89
2016-11-04T10:21:10.217Z,1012.87
2016-11-04T10:22:10.236Z,1012.88
2016-11-04T10:23:10.253Z,1012.88
2016-11-04T10:24:10.278Z,1012.83
2016-11-04T10:25:10.307Z,1012.82
2016-11-04T10:26:10.311Z,1012.83
2016-11-04T10:27:10.399Z,1012.85
2016-11-04T10:28:10.348Z,1012.81
2016-11-04T10:29:10.369Z,1012.78
2016-11-04T10:30:10.389Z,1012.84
2016-11-04T10:31:10.441Z,1012.85
2016-11-04T10:32:10.430Z,1012.79
2016-11-04T10:33:10.441Z,1012.86
2016-11-04T10:34:10.460Z,1012.79
2016-11-04T10:35:10.497Z,1012.76
2016-11-04T10:36:10.499Z,1012.75
2016-11-04T10:37:10.516Z,1012.74
2016-11-04T10:38:10.545Z,1012.69
2016-11-04T10:39:10.549Z,1012.69
2016-11-04T10:40:10.726Z,1012.65
2016-11-04T10:41:10.598Z,1012.63
2016-11-04T10:42:10.617Z,1012.65
2016-11-04T10:43:10.632Z,1012.63
2016-11-04T10:44:10.646Z,1012.64
2016-11-04T10:45:10.667Z,1012.63
2016-11-04T10:46:10.691Z,1012.59
2016-11-04T10:47:10.706Z,1012.62
2016-11-04T10:48:10.729Z,1012.64
2016-11-04T10:49:10.742Z,1012.59
2016-11-04T10:50:10.771Z,1012.54
2016-11-04T10:51:10.783Z,1012.59
2016-11-04T10:52:10.800Z,1012.58
2016-11-04T10:53:10.915Z,1012.52
2016-11-04T10:54:10.836Z,1012.53
2016-11-04T10:55:10.855Z,1012.56
2016-11-04T10:56:10.871Z,1012.49
2016-11-04T10:57:10.896Z,1012.44
2016-11-04T10:58:10.909Z,1012.47
2016-11-04T10:59:10.931Z,1012.49
2016-11-04T11:00:10.948Z,1012.44
2016-11-04T11:01:10.969Z,1012.45
2016-11-04T11:02:10.991Z,1012.46
2016-11-04T11:03:11.013Z,1012.35
2016-11-04T11:04:11.021Z,1012.41
2016-11-04T11:05:11.040Z,1012.35
2016-11-04T11:06:11.060Z,1012.35
2016-11-04T11:07:11.079Z,1012.34
2016-11-04T11:08:11.098Z,1012.33
2016-11-04T11:09:11.115Z,1012.26
2016-11-04T11:10:11.136Z,1012.23
2016-11-04T11:11:11.157Z,1012.31
2016-11-04T11:12:11.169Z,1012.24
2016-11-04T11:13:11.194Z,1012.21
2016-11-04T11:14:11.204Z,1012.13
2016-11-04T11:15:11.233Z,1012.17
2016-11-04T11:16:11.260Z,1012.14
2016-11-04T11:17:11.273Z,1012.18
2016-11-04T11:18:11.283Z,1012.13
2016-11-04T11:19:11.302Z,1012.12
2016-11-04T11:20:11.319Z,1012.15
2016-11-04T11:21:11.343Z,1012.11
2016-11-04T11:22:11.361Z,1012.14
2016-11-04T11:23:11.371Z,1012.14
2016-11-04T11:24:11.398Z,1012.11
2016-11-04T11:25:11.411Z,1012.09
2016-11-04T11:26:11.430Z,1012.12
2016-11-04T11:27:11.450Z,1012.07
2016-11-04T11:28:11.462Z,1012.07
2016-11-04T11:29:11.489Z,1012.06
2016-11-04T11:30:11.499Z,1012.09
2016-11-04T11:31:11.521Z,1012.11
2016-11-04T11:32:11.550Z,1012.08
2016-11-04T11:33:11.560Z,1012.05
2016-11-04T11:34:11.577Z,1012.05
2016-11-04T11:35:11.591Z,1011.99
2016-11-04T11:36:11.619Z,1012
2016-11-04T11:37:11.630Z,1012.01
2016-11-04T11:38:11.651Z,1012.03
2016-11-04T11:39:11.668Z,1011.99
2016-11-04T11:40:11.693Z,1011.97
2016-11-04T11:41:11.709Z,1011.99
2016-11-04T11:42:11.728Z,1012
2016-11-04T11:43:11.742Z,1011.95
2016-11-04T11:44:11.768Z,1011.9
2016-11-04T11:45:11.778Z,1011.91
2016-11-04T11:46:11.800Z,1011.87
2016-11-04T11:47:11.820Z,1011.87
2016-11-04T11:48:11.838Z,1011.83
2016-11-04T11:49:11.863Z,1011.81
2016-11-04T11:50:11.882Z,1011.83
2016-11-04T11:51:11.892Z,1011.78
2016-11-04T11:52:11.912Z,1011.67
2016-11-04T11:53:12.239Z,1011.76
2016-11-04T11:54:11.954Z,1011.74
2016-11-04T11:55:11.976Z,1011.72
2016-11-04T11:56:11.988Z,1011.77
2016-11-04T11:57:12.008Z,1011.76
2016-11-04T11:58:12.021Z,1011.77
2016-11-04T11:59:12.042Z,1011.71
2016-11-04T12:00:12.062Z,1011.72
2016-11-04T12:01:12.083Z,1011.74
2016-11-04T12:02:12.100Z,1011.75
2016-11-04T12:03:12.123Z,1011.72
2016-11-04T12:04:12.138Z,1011.71
2016-11-04T12:05:12.154Z,1011.73
2016-11-04T12:06:12.171Z,1011.68
2016-11-04T12:07:12.202Z,1011.68
2016-11-04T12:08:12.207Z,1011.72
2016-11-04T12:09:12.234Z,1011.71